createdAt,value
2023-03-12T00:02:27.986Z,73.29
2023-03-12T00:04:56.685Z,72.80
2023-03-12T00:07:24.730Z,73.14
2023-03-12T00:09:52.587Z,73.70
2023-03-12T00:12:20.425Z,73.71
2023-03-12T00:14:48.316Z,73.30
2023-03-12T00:17:17.583Z,73.77
2023-03-12T00:19:46.247Z,73.40
2023-03-12T00:22:16.702Z,73.46
2023-03-12T00:24:44.545Z,73.71
2023-03-12T00:27:12.376Z,74.14
2023-03-12T00:29:40.181Z,74.11
2023-03-12T00:32:08.906Z,74.34
2023-03-12T00:34:38.090Z,74.91
2023-03-12T00:37:06.191Z,74.13
2023-03-12T00:39:34.072Z,74.83
2023-03-12T00:42:02.185Z,73.77
2023-03-12T00:44:30.054Z,74.00
2023-03-12T00:46:57.896Z,74.68
2023-03-12T00:49:25.738Z,74.60
2023-03-12T00:51:56.076Z,74.91
2023-03-12T00:54:24.392Z,74.73
2023-03-12T00:56:52.163Z,75.14
2023-03-12T00:59:20.048Z,75.04
2023-03-12T01:01:47.917Z,74.76
2023-03-12T01:04:17.726Z,74.50
2023-03-12T01:06:45.975Z,74.84
2023-03-12T01:09:15.231Z,74.48
2023-03-12T01:11:43.111Z,74.92
2023-03-12T01:14:11.316Z,75.26
2023-03-12T01:16:39.282Z,75.00
2023-03-12T01:19:07.201Z,74.77
2023-03-12T01:21:35.181Z,75.05
2023-03-12T01:24:03.306Z,74.83
2023-03-12T01:26:32.582Z,74.94
2023-03-12T01:29:00.382Z,75.23
2023-03-12T01:31:28.513Z,75.50
2023-03-12T01:33:56.494Z,75.50
2023-03-12T01:36:27.056Z,75.88
2023-03-12T01:38:58.738Z,75.67
2023-03-12T01:41:28.717Z,76.10
2023-03-12T01:43:57.905Z,75.42
2023-03-12T01:46:35.366Z,76.24
2023-03-12T01:49:11.283Z,75.76
2023-03-12T01:51:42.252Z,76.16
2023-03-12T01:54:14.301Z,76.54
2023-03-12T01:56:43.779Z,75.68
2023-03-12T01:59:18.110Z,76.25
2023-03-12T02:01:46.701Z,76.03
2023-03-12T02:04:17.250Z,75.89
2023-03-12T02:06:50.298Z,76.62
2023-03-12T02:09:20.643Z,76.02
2023-03-12T02:11:50.324Z,76.46
2023-03-12T02:14:19.778Z,76.11
2023-03-12T02:16:48.083Z,76.14
2023-03-12T02:19:23.458Z,75.87
2023-03-12T02:21:51.862Z,76.72
2023-03-12T02:24:29.479Z,76.63
2023-03-12T02:26:59.330Z,76.08
2023-03-12T02:29:31.328Z,76.47
2023-03-12T02:32:02.627Z,76.15
2023-03-12T02:34:30.938Z,76.71
2023-03-12T02:36:58.970Z,76.69
2023-03-12T02:39:27.909Z,76.46
2023-03-12T02:41:58.771Z,76.69
2023-03-12T02:44:29.457Z,76.72
2023-03-12T02:47:00.201Z,76.80
2023-03-12T02:49:30.756Z,76.53
2023-03-12T02:52:01.559Z,76.74
2023-03-12T02:54:30.894Z,77.00
2023-03-12T02:57:00.135Z,76.96
2023-03-12T02:59:30.452Z,77.06
2023-03-12T03:02:02.176Z,76.80
2023-03-12T03:04:32.126Z,76.49
2023-03-12T03:07:00.162Z,76.45
2023-03-12T03:09:28.421Z,76.13
2023-03-12T03:11:56.422Z,76.33
2023-03-12T03:14:27.617Z,76.03
2023-03-12T03:16:56.055Z,76.04
2023-03-12T03:19:24.531Z,75.58
2023-03-12T03:21:52.427Z,75.48
2023-03-12T03:24:21.090Z,76.18
2023-03-12T03:26:48.941Z,75.54
2023-03-12T03:29:16.982Z,75.55
2023-03-12T03:31:46.621Z,75.75
2023-03-12T03:34:14.760Z,76.06
2023-03-12T03:36:42.620Z,75.91
2023-03-12T03:39:14.849Z,76.36
2023-03-12T03:41:43.045Z,76.51
2023-03-12T03:44:11.273Z,76.42
2023-03-12T03:46:40.458Z,76.56
2023-03-12T03:49:12.244Z,76.31
2023-03-12T03:51:42.871Z,76.40
2023-03-12T03:54:13.860Z,76.42
2023-03-12T03:56:43.352Z,76.39
2023-03-12T03:59:12.469Z,77.24
2023-03-12T04:01:41.910Z,76.98
2023-03-12T04:04:09.864Z,77.47
2023-03-12T04:06:39.158Z,77.25
2023-03-12T04:09:07.012Z,77.04
2023-03-12T04:11:36.786Z,77.34
2023-03-12T04:14:05.964Z,77.29
2023-03-12T04:16:35.235Z,77.50
2023-03-12T04:19:04.077Z,77.52
2023-03-12T04:21:32.156Z,77.04
2023-03-12T04:24:01.560Z,77.33
2023-03-12T04:26:33.393Z,77.33
2023-03-12T04:29:01.970Z,76.71
2023-03-12T04:31:30.091Z,77.16
2023-03-12T04:33:57.984Z,77.37
2023-03-12T04:36:26.808Z,76.60
2023-03-12T04:38:56.559Z,76.81
2023-03-12T04:41:30.273Z,76.62
2023-03-12T04:44:04.530Z,76.30
2023-03-12T04:46:34.777Z,76.25
2023-03-12T04:49:03.493Z,76.00
2023-03-12T04:51:33.342Z,76.66
2023-03-12T04:54:03.765Z,76.26
2023-03-12T04:56:33.790Z,76.58
2023-03-12T04:59:02.426Z,76.85
2023-03-12T05:01:33.182Z,76.75
2023-03-12T05:04:05.518Z,77.36
2023-03-12T05:06:33.972Z,77.57
2023-03-12T05:09:02.027Z,77.64
2023-03-12T05:11:35.449Z,76.71
2023-03-12T05:14:04.615Z,77.55
2023-03-12T05:16:32.548Z,77.81
2023-03-12T05:19:02.300Z,77.71
2023-03-12T05:21:31.098Z,79.47
2023-03-12T05:23:59.885Z,78.13
2023-03-12T05:26:31.561Z,78.77
2023-03-12T05:29:21.130Z,79.06
2023-03-12T05:31:49.907Z,78.54
2023-03-12T05:34:18.257Z,79.66
2023-03-12T05:36:46.871Z,79.81
2023-03-12T05:39:18.780Z,80.38
2023-03-12T05:41:47.278Z,82.53
2023-03-12T05:44:19.049Z,82.64
2023-03-12T05:46:53.810Z,82.03
2023-03-12T05:49:25.131Z,82.55
2023-03-12T05:51:54.215Z,82.02
2023-03-12T05:54:24.406Z,82.23
2023-03-12T05:56:53.578Z,81.90
2023-03-12T05:59:23.613Z,82.70
2023-03-12T06:01:54.960Z,83.25
2023-03-12T06:04:23.005Z,83.43
2023-03-12T06:06:52.572Z,82.84
2023-03-12T06:09:20.544Z,83.33
2023-03-12T06:11:48.320Z,82.49
2023-03-12T06:14:16.245Z,82.43
2023-03-12T06:16:44.868Z,82.07
2023-03-12T06:19:15.073Z,81.90
2023-03-12T06:21:45.539Z,82.53
2023-03-12T06:24:14.311Z,83.20
2023-03-12T06:26:49.677Z,84.56
2023-03-12T06:29:17.520Z,83.94
2023-03-12T06:31:45.502Z,84.25
2023-03-12T06:34:16.742Z,84.23
2023-03-12T06:36:44.658Z,84.80
2023-03-12T06:39:12.461Z,85.86
2023-03-12T06:41:41.517Z,85.70
2023-03-12T06:44:09.403Z,86.76
2023-03-12T06:46:37.295Z,87.86
2023-03-12T06:49:05.664Z,87.47
2023-03-12T06:51:34.909Z,87.62
2023-03-12T06:54:02.879Z,87.41
2023-03-12T06:56:31.921Z,87.69
2023-03-12T06:59:00.138Z,87.90
2023-03-12T07:01:28.329Z,87.23
2023-03-12T07:03:56.120Z,88.41
2023-03-12T07:06:25.094Z,88.05
2023-03-12T07:08:54.551Z,88.95
2023-03-12T07:11:22.621Z,89.05
2023-03-12T07:13:51.590Z,89.17
2023-03-12T07:16:19.656Z,88.59
2023-03-12T07:18:47.630Z,89.63
2023-03-12T07:21:16.659Z,89.27
2023-03-12T07:23:44.656Z,89.54
2023-03-12T07:26:13.829Z,90.00
2023-03-12T07:28:41.722Z,88.96
2023-03-12T07:31:09.950Z,89.86
2023-03-12T07:33:39.120Z,89.40
2023-03-12T07:36:08.587Z,89.00
2023-03-12T07:38:36.456Z,89.19
2023-03-12T07:41:04.455Z,88.54
2023-03-12T07:43:33.708Z,88.80
2023-03-12T07:46:01.513Z,89.57
2023-03-12T07:48:29.492Z,89.58
2023-03-12T07:50:57.354Z,89.23
2023-03-12T07:53:25.176Z,89.31
2023-03-12T07:55:53.156Z,88.72
2023-03-12T07:58:21.229Z,89.72
2023-03-12T08:00:50.725Z,89.31
2023-03-12T08:03:18.751Z,90.13
2023-03-12T08:05:46.714Z,90.12
2023-03-12T08:08:14.660Z,90.48
2023-03-12T08:10:42.503Z,91.29
2023-03-12T08:13:10.362Z,90.78
2023-03-12T08:15:38.205Z,90.98
2023-03-12T08:18:07.465Z,91.74
2023-03-12T08:20:35.373Z,92.07
2023-03-12T08:23:03.239Z,92.21
2023-03-12T08:25:31.062Z,94.14
2023-03-12T08:27:58.883Z,94.04
2023-03-12T08:30:29.153Z,94.15
2023-03-12T08:32:58.306Z,94.61
2023-03-12T08:35:27.595Z,93.88
2023-03-12T08:37:56.890Z,94.84
2023-03-12T08:40:24.960Z,93.69
2023-03-12T08:42:52.795Z,93.71
2023-03-12T08:45:20.717Z,93.47
2023-03-12T08:47:48.615Z,94.12
2023-03-12T08:50:17.089Z,94.73
2023-03-12T08:52:46.401Z,95.63
2023-03-12T08:55:14.511Z,95.68
2023-03-12T08:57:42.454Z,96.50
2023-03-12T09:00:15.023Z,95.60
2023-03-12T09:02:44.771Z,95.88
2023-03-12T09:05:13.067Z,96.96
2023-03-12T09:07:41.552Z,96.84
2023-03-12T09:10:11.873Z,95.91
2023-03-12T09:12:39.776Z,96.77
2023-03-12T09:15:09.262Z,96.58
2023-03-12T09:17:37.165Z,97.10
2023-03-12T09:20:08.222Z,96.78
2023-03-12T09:22:37.148Z,97.29
2023-03-12T09:25:06.723Z,96.67
2023-03-12T09:27:39.955Z,98.49
2023-03-12T09:30:09.448Z,97.51
2023-03-12T09:32:37.444Z,97.20
2023-03-12T09:35:06.499Z,97.35
2023-03-12T09:37:35.504Z,97.12
2023-03-12T09:40:05.862Z,97.23
2023-03-12T09:42:41.541Z,97.86
2023-03-12T09:45:16.752Z,98.73
2023-03-12T09:47:49.952Z,99.52
2023-03-12T09:50:26.274Z,99.19
2023-03-12T09:52:59.265Z,99.30
2023-03-12T09:55:29.099Z,100.00
2023-03-12T09:57:59.314Z,100.00
2023-03-12T10:00:32.729Z,100.00
2023-03-12T10:03:11.976Z,100.00
2023-03-12T10:05:46.953Z,100.00
2023-03-12T10:08:26.623Z,100.00
2023-03-12T10:11:04.378Z,100.00
2023-03-12T10:13:48.531Z,100.00
2023-03-12T10:16:28.788Z,100.00
2023-03-12T10:19:14.576Z,100.00
2023-03-12T10:21:50.680Z,100.00
2023-03-12T10:24:31.587Z,100.00
2023-03-12T10:27:01.773Z,100.00
2023-03-12T10:29:34.072Z,100.00
2023-03-12T10:32:06.380Z,100.00
2023-03-12T10:34:40.327Z,100.00
2023-03-12T10:37:17.278Z,100.00
2023-03-12T10:39:45.919Z,100.00
2023-03-12T10:42:18.009Z,100.00
2023-03-12T10:44:52.095Z,100.00
2023-03-12T10:47:35.822Z,100.00
2023-03-12T10:50:22.848Z,100.00
2023-03-12T10:52:52.797Z,100.00
2023-03-12T10:55:26.319Z,100.00
2023-03-12T10:57:55.201Z,100.00
2023-03-12T11:00:27.172Z,100.00
2023-03-12T11:03:00.398Z,100.00
2023-03-12T11:05:31.630Z,100.00
2023-03-12T11:08:01.868Z,100.00
2023-03-12T11:10:42.934Z,100.00
2023-03-12T11:13:32.797Z,100.00
2023-03-12T11:16:03.681Z,100.00
2023-03-12T11:18:34.589Z,100.00
2023-03-12T11:21:19.648Z,100.00
2023-03-12T11:24:07.188Z,100.00
2023-03-12T11:26:49.639Z,100.00
2023-03-12T11:29:39.972Z,100.00
2023-03-12T11:32:18.406Z,100.00
2023-03-12T11:34:49.627Z,100.00
2023-03-12T11:37:28.220Z,100.00
2023-03-12T11:40:10.016Z,100.00
2023-03-12T11:42:54.029Z,100.00
2023-03-12T11:45:30.676Z,100.00
2023-03-12T11:48:11.326Z,99.99
2023-03-12T11:50:53.069Z,98.70
2023-03-12T11:54:07.778Z,97.67
2023-03-12T11:56:40.138Z,97.33
2023-03-12T11:59:24.408Z,95.64
2023-03-12T12:02:04.208Z,95.76
2023-03-12T12:04:51.004Z,95.73
2023-03-12T12:07:30.913Z,94.43
2023-03-12T12:10:07.120Z,95.03
2023-03-12T12:12:52.019Z,93.05
2023-03-12T12:15:30.213Z,93.37
2023-03-12T12:18:06.804Z,91.28
2023-03-12T12:20:45.307Z,92.03
2023-03-12T12:23:29.526Z,90.75
2023-03-12T12:26:09.450Z,88.57
2023-03-12T12:28:55.284Z,88.02
2023-03-12T12:31:35.274Z,87.92
2023-03-12T12:34:33.047Z,86.07
2023-03-12T12:37:18.430Z,85.64
2023-03-12T12:39:52.753Z,84.68
2023-03-12T12:42:25.706Z,84.64
2023-03-12T12:44:56.296Z,84.72
2023-03-12T12:47:38.049Z,85.56
2023-03-12T12:50:06.648Z,84.42
2023-03-12T12:52:36.063Z,85.10
2023-03-12T12:55:13.128Z,85.27
2023-03-12T12:57:45.921Z,85.72
2023-03-12T13:00:22.890Z,85.32
2023-03-12T13:02:51.539Z,85.08
2023-03-12T13:05:22.812Z,86.33
2023-03-12T13:07:52.075Z,86.62
2023-03-12T13:10:48.392Z,88.42
2023-03-12T13:13:27.192Z,87.61
2023-03-12T13:16:18.981Z,87.25
2023-03-12T13:18:58.494Z,86.38
2023-03-12T13:21:34.583Z,86.12
2023-03-12T13:24:18.367Z,87.08
2023-03-12T13:26:57.303Z,87.32
2023-03-12T13:29:39.636Z,86.73
2023-03-12T13:32:11.197Z,86.67
2023-03-12T13:34:48.130Z,86.19
2023-03-12T13:37:30.859Z,86.70
2023-03-12T13:40:07.941Z,87.03
2023-03-12T13:42:42.877Z,86.75
2023-03-12T13:45:26.464Z,86.44
2023-03-12T13:48:00.245Z,85.78
2023-03-12T13:50:29.316Z,84.39
2023-03-12T13:53:05.141Z,82.57
2023-03-12T13:55:36.286Z,81.57
2023-03-12T13:58:09.329Z,81.54
2023-03-12T14:00:41.430Z,80.69
2023-03-12T14:03:17.325Z,80.96
2023-03-12T14:05:51.535Z,80.07
2023-03-12T14:08:34.316Z,79.64
2023-03-12T14:11:22.184Z,78.93
2023-03-12T14:14:12.580Z,80.74
2023-03-12T14:16:43.487Z,83.58
2023-03-12T14:19:14.365Z,83.41
2023-03-12T14:21:45.346Z,82.69
2023-03-12T14:24:24.176Z,84.14
2023-03-12T14:26:55.074Z,84.08
2023-03-12T14:29:28.853Z,83.49
2023-03-12T14:32:00.121Z,82.43
2023-03-12T14:34:31.475Z,82.38
2023-03-12T14:37:05.862Z,82.07
2023-03-12T14:39:36.058Z,81.51
2023-03-12T14:42:07.872Z,81.69
2023-03-12T14:44:37.658Z,81.60
2023-03-12T14:47:10.034Z,82.02
2023-03-12T14:49:42.496Z,81.30
2023-03-12T14:52:13.033Z,81.99
2023-03-12T14:54:41.312Z,81.15
2023-03-12T14:57:20.309Z,81.44
2023-03-12T14:59:53.934Z,81.42
2023-03-12T15:02:22.428Z,81.51
2023-03-12T15:04:54.519Z,80.57
2023-03-12T15:07:27.078Z,80.84
2023-03-12T15:09:55.348Z,80.91
2023-03-12T15:12:26.733Z,80.03
2023-03-12T15:14:58.841Z,79.96
2023-03-12T15:17:30.096Z,78.10
2023-03-12T15:19:59.379Z,76.54
2023-03-12T15:22:28.859Z,76.28
2023-03-12T15:24:56.801Z,76.39
2023-03-12T15:27:35.438Z,76.72
2023-03-12T15:30:04.090Z,77.19
2023-03-12T15:32:32.111Z,75.80
2023-03-12T15:35:00.648Z,75.30
2023-03-12T15:37:35.199Z,75.05
2023-03-12T15:40:06.492Z,75.09
2023-03-12T15:42:43.923Z,74.59
2023-03-12T15:45:20.396Z,73.57
2023-03-12T15:47:49.429Z,73.62
2023-03-12T15:50:23.110Z,74.29
2023-03-12T15:53:02.491Z,74.15
2023-03-12T15:55:31.671Z,73.15
2023-03-12T15:58:01.790Z,73.78
2023-03-12T16:00:30.944Z,73.33
2023-03-12T16:03:01.051Z,73.58
2023-03-12T16:05:33.034Z,72.61
2023-03-12T16:08:03.046Z,71.72
2023-03-12T16:10:40.314Z,71.92
2023-03-12T16:13:15.828Z,72.02
2023-03-12T16:15:45.727Z,72.29
2023-03-12T16:18:15.964Z,72.68
2023-03-12T16:20:44.281Z,72.39
2023-03-12T16:23:12.654Z,72.00
2023-03-12T16:25:43.073Z,72.53
2023-03-12T16:28:16.639Z,72.34
2023-03-12T16:30:44.680Z,72.82
2023-03-12T16:33:15.400Z,72.94
2023-03-12T16:35:43.514Z,72.68
2023-03-12T16:38:11.440Z,73.01
2023-03-12T16:40:42.033Z,73.64
2023-03-12T16:43:17.762Z,73.12
2023-03-12T16:45:47.396Z,72.91
2023-03-12T16:48:17.240Z,73.07
2023-03-12T16:50:48.826Z,72.92
2023-03-12T16:53:16.898Z,73.17
2023-03-12T16:55:48.838Z,73.37
2023-03-12T16:58:21.024Z,73.48
2023-03-12T17:00:49.510Z,73.40
2023-03-12T17:03:21.929Z,72.85
2023-03-12T17:05:49.752Z,72.69
2023-03-12T17:08:17.638Z,73.18
2023-03-12T17:10:45.644Z,73.34
2023-03-12T17:13:21.208Z,72.68
2023-03-12T17:15:50.428Z,73.09
2023-03-12T17:18:18.868Z,72.80
2023-03-12T17:20:47.257Z,73.15
2023-03-12T17:23:15.238Z,73.58
2023-03-12T17:25:44.613Z,73.95
2023-03-12T17:28:13.625Z,73.34
2023-03-12T17:30:43.221Z,73.03
2023-03-12T17:33:13.051Z,73.52
2023-03-12T17:35:41.605Z,73.74
2023-03-12T17:38:10.483Z,74.18
2023-03-12T17:40:41.484Z,73.95
2023-03-12T17:43:09.374Z,74.14
2023-03-12T17:45:37.691Z,74.52
2023-03-12T17:48:07.105Z,74.64
2023-03-12T17:50:34.964Z,74.05
2023-03-12T17:53:03.113Z,74.56
2023-03-12T17:55:31.032Z,74.73
2023-03-12T17:57:58.851Z,75.10
2023-03-12T18:00:26.696Z,75.73
2023-03-12T18:02:54.565Z,75.39
2023-03-12T18:05:23.858Z,75.28
2023-03-12T18:07:52.392Z,75.25
2023-03-12T18:10:20.658Z,74.90
2023-03-12T18:12:48.688Z,74.96
2023-03-12T18:15:17.089Z,75.02
2023-03-12T18:17:45.789Z,75.39
2023-03-12T18:20:17.886Z,75.48
2023-03-12T18:22:48.823Z,76.16
2023-03-12T18:25:16.773Z,76.81
2023-03-12T18:27:44.654Z,76.85
2023-03-12T18:30:13.683Z,77.33
2023-03-12T18:32:42.176Z,77.68
2023-03-12T18:35:10.475Z,78.07
2023-03-12T18:37:38.273Z,78.62
2023-03-12T18:40:08.780Z,79.62
2023-03-12T18:42:36.645Z,77.86
2023-03-12T18:45:05.383Z,78.66
2023-03-12T18:47:34.881Z,79.89
2023-03-12T18:50:02.874Z,80.79
2023-03-12T18:52:30.743Z,79.82
2023-03-12T18:54:59.365Z,80.54
2023-03-12T18:57:28.648Z,80.36
2023-03-12T18:59:56.630Z,79.55
2023-03-12T19:02:24.713Z,79.72
2023-03-12T19:04:55.508Z,81.02
2023-03-12T19:07:24.258Z,79.42
2023-03-12T19:09:52.096Z,80.69
2023-03-12T19:12:19.967Z,80.22
2023-03-12T19:14:49.281Z,79.77
2023-03-12T19:17:17.537Z,80.80
2023-03-12T19:19:45.419Z,80.35
2023-03-12T19:22:13.304Z,81.29
2023-03-12T19:24:43.097Z,80.61
2023-03-12T19:27:11.354Z,80.40
2023-03-12T19:29:39.232Z,81.06
2023-03-12T19:32:09.207Z,81.11
2023-03-12T19:34:37.202Z,81.23
2023-03-12T19:37:05.126Z,81.98
2023-03-12T19:39:32.967Z,81.65
2023-03-12T19:42:00.817Z,82.18
2023-03-12T19:44:28.637Z,80.65
2023-03-12T19:46:56.499Z,81.53
2023-03-12T19:49:25.881Z,81.30
2023-03-12T19:51:53.753Z,81.88
2023-03-12T19:54:21.573Z,82.91
2023-03-12T19:56:49.418Z,82.06
2023-03-12T19:59:17.532Z,83.16
2023-03-12T20:01:45.407Z,83.83
2023-03-12T20:04:13.543Z,83.33
2023-03-12T20:06:42.954Z,83.58
2023-03-12T20:09:10.836Z,83.34
2023-03-12T20:11:38.701Z,83.80
2023-03-12T20:14:06.579Z,84.28
2023-03-12T20:16:34.554Z,84.60
2023-03-12T20:19:02.407Z,83.78
2023-03-12T20:21:30.859Z,83.94
2023-03-12T20:24:02.092Z,83.75
2023-03-12T20:26:30.036Z,83.87
2023-03-12T20:29:01.569Z,84.81
2023-03-12T20:31:29.517Z,84.39
2023-03-12T20:33:57.364Z,84.32
2023-03-12T20:36:25.200Z,84.57
2023-03-12T20:38:53.041Z,85.92
2023-03-12T20:41:22.420Z,85.53
2023-03-12T20:43:50.312Z,85.41
2023-03-12T20:46:19.010Z,85.70
2023-03-12T20:48:46.906Z,85.22
2023-03-12T20:51:15.015Z,86.13
2023-03-12T20:53:42.993Z,85.87
2023-03-12T20:56:11.605Z,86.26
2023-03-12T20:58:40.864Z,85.75
2023-03-12T21:01:08.987Z,85.91
2023-03-12T21:03:36.912Z,86.43
2023-03-12T21:06:05.157Z,86.97
2023-03-12T21:08:34.405Z,86.81
2023-03-12T21:11:08.030Z,86.71
2023-03-12T21:13:35.931Z,86.62
2023-03-12T21:16:08.253Z,87.34
2023-03-12T21:18:36.379Z,86.80
2023-03-12T21:21:05.561Z,86.66
2023-03-12T21:23:34.288Z,87.07
2023-03-12T21:26:07.183Z,87.07
2023-03-12T21:28:36.548Z,88.05
2023-03-12T21:31:10.532Z,88.03
2023-03-12T21:33:38.485Z,87.63
2023-03-12T21:36:07.753Z,87.60
2023-03-12T21:38:36.116Z,87.14
2023-03-12T21:41:06.432Z,87.44
2023-03-12T21:43:34.582Z,87.57
2023-03-12T21:46:06.458Z,87.32
2023-03-12T21:48:36.268Z,87.11
2023-03-12T21:51:04.690Z,87.37
2023-03-12T21:53:32.565Z,87.07
2023-03-12T21:56:02.109Z,86.92
2023-03-12T21:58:31.820Z,87.72
2023-03-12T22:01:08.382Z,87.06
2023-03-12T22:03:38.615Z,87.85
2023-03-12T22:06:07.139Z,88.28
2023-03-12T22:08:35.679Z,87.82
2023-03-12T22:11:03.891Z,87.70
2023-03-12T22:13:31.733Z,88.04
2023-03-12T22:16:01.343Z,87.88
2023-03-12T22:18:30.404Z,88.36
2023-03-12T22:21:01.695Z,88.21
2023-03-12T22:23:30.373Z,88.78
2023-03-12T22:26:01.557Z,88.01
2023-03-12T22:28:29.545Z,88.69
2023-03-12T22:31:01.602Z,87.62
2023-03-12T22:33:30.329Z,89.04
2023-03-12T22:35:59.519Z,88.36
2023-03-12T22:38:27.336Z,88.92
2023-03-12T22:40:55.995Z,88.21
2023-03-12T22:43:26.195Z,87.73
2023-03-12T22:45:54.383Z,88.48
2023-03-12T22:48:22.220Z,88.50
2023-03-12T22:50:54.339Z,89.02
2023-03-12T22:53:23.615Z,88.77
2023-03-12T22:55:58.485Z,88.43
2023-03-12T22:58:26.470Z,88.66
2023-03-12T23:00:59.551Z,88.55
2023-03-12T23:03:28.031Z,88.79
2023-03-12T23:05:56.079Z,89.05
2023-03-12T23:08:25.584Z,88.43
2023-03-12T23:10:54.764Z,88.25
2023-03-12T23:13:22.933Z,88.52
2023-03-12T23:15:51.029Z,87.69
2023-03-12T23:18:19.363Z,87.46
2023-03-12T23:20:47.575Z,87.69
2023-03-12T23:23:16.595Z,87.56
2023-03-12T23:25:53.424Z,87.42
2023-03-12T23:28:21.291Z,87.50
2023-03-12T23:30:55.010Z,87.11
2023-03-12T23:33:22.971Z,86.77
2023-03-12T23:36:01.455Z,87.51
2023-03-12T23:38:30.441Z,87.92
2023-03-12T23:41:03.383Z,87.25
2023-03-12T23:43:31.279Z,87.29
2023-03-12T23:46:00.654Z,87.92
2023-03-12T23:48:30.155Z,87.40
2023-03-12T23:51:05.701Z,87.76
2023-03-12T23:53:34.314Z,88.46
2023-03-12T23:56:05.870Z,88.25
2023-03-12T23:58:34.471Z,88.07
